createdAt,value
2019-01-08T00:02:24.684Z,4.50
2019-01-08T00:04:53.218Z,4.50
2019-01-08T00:07:21.787Z,4.40
2019-01-08T00:09:50.271Z,4.40
2019-01-08T00:12:18.852Z,4.40
2019-01-08T00:14:47.395Z,4.40
2019-01-08T00:17:15.975Z,4.40
2019-01-08T00:19:44.818Z,4.40
2019-01-08T00:22:13.383Z,4.40
2019-01-08T00:24:41.928Z,4.40
2019-01-08T00:27:10.495Z,4.40
2019-01-08T00:29:39.034Z,4.40
2019-01-08T00:32:07.579Z,4.40
2019-01-08T00:34:36.147Z,4.50
2019-01-08T00:37:04.615Z,4.50
2019-01-08T00:39:33.188Z,4.50
2019-01-08T00:42:01.794Z,4.50
2019-01-08T00:44:30.367Z,4.50
2019-01-08T00:46:58.907Z,4.50
2019-01-08T00:49:27.479Z,4.50
2019-01-08T00:51:55.942Z,4.50
2019-01-08T00:54:24.512Z,4.50
2019-01-08T00:56:53.051Z,4.50
2019-01-08T00:59:21.619Z,4.50
2019-01-08T01:01:50.159Z,4.60
2019-01-08T01:04:19.068Z,4.60
2019-01-08T01:06:47.601Z,4.60
2019-01-08T01:09:16.183Z,4.60
2019-01-08T01:11:44.725Z,4.60
2019-01-08T01:14:13.300Z,4.60
2019-01-08T01:16:41.839Z,4.60
2019-01-08T01:19:10.406Z,4.60
2019-01-08T01:21:38.948Z,4.70
2019-01-08T01:24:07.521Z,4.70
2019-01-08T01:26:36.054Z,4.70
2019-01-08T01:29:04.622Z,4.70
2019-01-08T01:31:33.163Z,4.70
2019-01-08T01:34:01.731Z,4.70
2019-01-08T01:36:30.274Z,4.70
2019-01-08T01:38:58.833Z,4.70
2019-01-08T01:41:27.302Z,4.80
2019-01-08T01:43:55.943Z,4.80
2019-01-08T01:46:24.479Z,4.80
2019-01-08T01:48:53.043Z,4.90
2019-01-08T01:51:21.510Z,4.90
2019-01-08T01:53:50.007Z,4.90
2019-01-08T01:56:18.542Z,4.90
2019-01-08T01:58:47.036Z,4.90
2019-01-08T02:01:15.576Z,5.00
2019-01-08T02:03:44.147Z,5.00
2019-01-08T02:06:12.968Z,5.00
2019-01-08T02:08:41.539Z,5.00
2019-01-08T02:11:10.078Z,5.00
2019-01-08T02:13:38.610Z,5.00
2019-01-08T02:16:07.183Z,5.00
2019-01-08T02:18:35.719Z,5.00
2019-01-08T02:21:04.350Z,5.00
2019-01-08T02:23:32.890Z,5.00
2019-01-08T02:26:01.447Z,5.00
2019-01-08T02:28:29.920Z,5.00
2019-01-08T02:30:58.487Z,5.00
2019-01-08T02:33:27.018Z,5.00
2019-01-08T02:35:55.835Z,5.00
2019-01-08T02:38:24.377Z,5.00
2019-01-08T02:40:52.951Z,5.00
2019-01-08T02:43:21.794Z,5.10
2019-01-08T02:45:50.359Z,5.10
2019-01-08T02:48:18.899Z,5.20
2019-01-08T02:50:47.467Z,5.10
2019-01-08T02:53:16.006Z,5.10
2019-01-08T02:55:44.574Z,5.10
2019-01-08T02:58:13.116Z,5.10
2019-01-08T03:00:41.746Z,5.10
2019-01-08T03:03:10.286Z,5.10
2019-01-08T03:05:38.774Z,5.10
2019-01-08T03:08:07.312Z,5.10
2019-01-08T03:10:35.874Z,5.10
2019-01-08T03:13:04.751Z,5.10
2019-01-08T03:15:33.319Z,5.00
2019-01-08T03:18:01.859Z,5.10
2019-01-08T03:20:30.427Z,5.00
2019-01-08T03:22:58.962Z,5.00
2019-01-08T03:25:27.455Z,5.10
2019-01-08T03:27:56.855Z,5.10
2019-01-08T03:30:25.412Z,5.10
2019-01-08T03:32:53.949Z,5.20
2019-01-08T03:35:22.514Z,5.20
2019-01-08T03:37:51.048Z,5.30
2019-01-08T03:40:19.610Z,5.30
2019-01-08T03:42:48.148Z,5.30
2019-01-08T03:45:16.707Z,5.30
2019-01-08T03:47:45.339Z,5.40
2019-01-08T03:50:13.947Z,5.50
2019-01-08T03:52:42.863Z,5.50
2019-01-08T03:55:11.483Z,5.50
2019-01-08T03:57:40.030Z,5.50
2019-01-08T04:00:11.452Z,5.50
2019-01-08T04:02:40.010Z,5.50
2019-01-08T04:05:08.612Z,5.50
2019-01-08T04:07:37.167Z,5.50
2019-01-08T04:10:07.756Z,5.50
2019-01-08T04:12:36.322Z,5.50
2019-01-08T04:15:05.702Z,5.50
2019-01-08T04:17:34.258Z,5.60
2019-01-08T04:20:03.058Z,5.50
2019-01-08T04:22:31.867Z,5.50
2019-01-08T04:25:00.326Z,5.70
2019-01-08T04:27:28.898Z,5.90
2019-01-08T04:29:57.429Z,6.10
2019-01-08T04:32:25.998Z,6.30
2019-01-08T04:34:54.531Z,6.40
2019-01-08T04:37:23.014Z,6.40
2019-01-08T04:39:51.471Z,6.40
2019-01-08T04:42:20.039Z,6.50
2019-01-08T04:44:48.581Z,6.50
2019-01-08T04:47:17.142Z,6.40
2019-01-08T04:49:45.682Z,6.50
2019-01-08T04:52:14.243Z,6.50
2019-01-08T04:54:43.112Z,6.60
2019-01-08T04:57:11.675Z,6.60
2019-01-08T04:59:40.215Z,6.60
2019-01-08T05:02:08.771Z,6.50
2019-01-08T05:04:37.311Z,6.50
2019-01-08T05:07:05.874Z,6.50
2019-01-08T05:09:34.410Z,6.50
2019-01-08T05:12:02.978Z,6.40
2019-01-08T05:14:31.763Z,6.40
2019-01-08T05:17:00.694Z,6.40
2019-01-08T05:19:29.231Z,6.30
2019-01-08T05:21:57.794Z,6.40
2019-01-08T05:24:26.260Z,6.30
2019-01-08T05:26:54.826Z,6.30
2019-01-08T05:29:23.369Z,6.20
2019-01-08T05:31:51.926Z,6.20
2019-01-08T05:34:20.467Z,6.20
2019-01-08T05:36:49.044Z,6.20
2019-01-08T05:39:17.578Z,6.20
2019-01-08T05:41:46.183Z,6.20
2019-01-08T05:44:14.670Z,6.20
2019-01-08T05:46:43.207Z,6.30
2019-01-08T05:49:11.775Z,6.30
2019-01-08T05:51:40.322Z,6.30
2019-01-08T05:54:08.882Z,6.30
2019-01-08T05:56:37.734Z,6.40
2019-01-08T05:59:06.298Z,6.30
2019-01-08T06:01:34.837Z,6.20
2019-01-08T06:04:03.678Z,6.20
2019-01-08T06:06:32.220Z,6.10
2019-01-08T06:09:00.787Z,6.20
2019-01-08T06:11:29.325Z,6.20
2019-01-08T06:13:57.903Z,6.20
2019-01-08T06:16:26.687Z,6.30
2019-01-08T06:18:55.251Z,6.30
2019-01-08T06:21:23.790Z,6.20
2019-01-08T06:23:52.354Z,6.20
2019-01-08T06:26:20.885Z,6.20
2019-01-08T06:28:49.369Z,6.20
2019-01-08T06:31:17.835Z,6.30
2019-01-08T06:33:46.755Z,6.40
2019-01-08T06:36:15.286Z,6.40
2019-01-08T06:38:43.774Z,6.40
2019-01-08T06:41:12.239Z,6.30
2019-01-08T06:43:40.798Z,6.30
2019-01-08T06:46:09.338Z,6.30
2019-01-08T06:48:38.237Z,6.30
2019-01-08T06:51:06.768Z,6.40
2019-01-08T06:53:35.331Z,6.30
2019-01-08T06:56:03.953Z,6.10
2019-01-08T06:58:32.435Z,6.20
2019-01-08T07:01:00.971Z,6.20
2019-01-08T07:03:29.526Z,6.20
2019-01-08T07:05:57.987Z,6.20
2019-01-08T07:08:26.549Z,6.20
2019-01-08T07:10:55.091Z,6.20
2019-01-08T07:13:23.651Z,6.20
2019-01-08T07:15:52.178Z,6.20
2019-01-08T07:18:20.662Z,6.20
2019-01-08T07:20:49.121Z,6.00
2019-01-08T07:23:17.857Z,6.00
2019-01-08T07:25:46.418Z,6.00
2019-01-08T07:28:14.959Z,6.10
2019-01-08T07:30:43.531Z,6.00
2019-01-08T07:33:12.063Z,6.00
2019-01-08T07:35:40.963Z,6.10
2019-01-08T07:38:09.504Z,6.00
2019-01-08T07:40:38.078Z,6.10
2019-01-08T07:43:06.611Z,6.00
2019-01-08T07:45:35.173Z,6.00
2019-01-08T07:48:03.714Z,6.00
2019-01-08T07:50:32.279Z,6.10
2019-01-08T07:53:00.811Z,6.10
2019-01-08T07:55:29.314Z,6.20
2019-01-08T07:57:57.805Z,6.20
2019-01-08T08:00:26.371Z,6.10
2019-01-08T08:02:55.246Z,6.10
2019-01-08T08:05:23.806Z,6.00
2019-01-08T08:07:52.270Z,6.00
2019-01-08T08:10:20.841Z,6.00
2019-01-08T08:12:49.374Z,6.00
2019-01-08T08:15:18.259Z,6.10
2019-01-08T08:17:46.791Z,6.10
2019-01-08T08:20:15.361Z,6.00
2019-01-08T08:22:43.898Z,6.00
2019-01-08T08:25:12.535Z,6.10
2019-01-08T08:27:41.066Z,6.10
2019-01-08T08:30:09.899Z,6.10
2019-01-08T08:32:38.428Z,6.00
2019-01-08T08:35:08.657Z,6.10
2019-01-08T08:37:37.631Z,6.10
2019-01-08T08:40:07.635Z,6.10
2019-01-08T08:42:36.175Z,6.10
2019-01-08T08:45:05.179Z,6.10
2019-01-08T08:47:33.642Z,6.20
2019-01-08T08:50:02.211Z,6.10
2019-01-08T08:52:30.749Z,6.10
2019-01-08T08:54:59.311Z,6.00
2019-01-08T08:57:27.847Z,6.00
2019-01-08T08:59:56.414Z,6.00
2019-01-08T09:02:24.951Z,6.00
2019-01-08T09:04:53.491Z,6.00
2019-01-08T09:07:22.053Z,6.00
2019-01-08T09:09:50.587Z,6.00
2019-01-08T09:12:19.156Z,6.00
2019-01-08T09:14:47.985Z,6.00
2019-01-08T09:17:16.547Z,6.00
2019-01-08T09:19:45.083Z,6.00
2019-01-08T09:22:13.639Z,6.00
2019-01-08T09:24:42.103Z,6.00
2019-01-08T09:27:10.666Z,5.90
2019-01-08T09:29:39.200Z,5.90
2019-01-08T09:32:07.766Z,5.90
2019-01-08T09:34:36.298Z,6.00
2019-01-08T09:37:04.780Z,6.00
2019-01-08T09:39:33.315Z,6.10
2019-01-08T09:42:01.879Z,6.10
2019-01-08T09:44:30.338Z,6.00
2019-01-08T09:46:59.223Z,6.00
2019-01-08T09:49:27.765Z,6.00
2019-01-08T09:51:56.322Z,6.00
2019-01-08T09:54:24.853Z,5.90
2019-01-08T09:56:53.437Z,5.80
2019-01-08T09:59:21.957Z,5.70
2019-01-08T10:01:50.523Z,5.70
2019-01-08T10:04:19.056Z,5.70
2019-01-08T10:06:47.623Z,5.70
2019-01-08T10:09:16.163Z,5.80
2019-01-08T10:11:44.735Z,5.80
2019-01-08T10:14:13.265Z,5.90
2019-01-08T10:16:41.834Z,6.00
2019-01-08T10:19:10.391Z,6.30
2019-01-08T10:21:38.955Z,6.60
2019-01-08T10:24:07.516Z,6.60
2019-01-08T10:26:36.055Z,6.70
2019-01-08T10:29:04.623Z,6.70
2019-01-08T10:31:33.163Z,6.50
2019-01-08T10:34:01.727Z,6.40
2019-01-08T10:36:30.263Z,6.50
2019-01-08T10:38:58.839Z,6.30
2019-01-08T10:41:27.375Z,6.40
2019-01-08T10:43:55.939Z,6.40
2019-01-08T10:46:24.757Z,6.30
2019-01-08T10:48:53.319Z,6.30
2019-01-08T10:51:22.119Z,6.30
2019-01-08T10:53:50.675Z,6.30
2019-01-08T10:56:19.211Z,6.30
2019-01-08T10:58:47.774Z,6.40
2019-01-08T11:01:16.319Z,6.30
2019-01-08T11:03:44.895Z,6.30
2019-01-08T11:06:13.414Z,6.30
2019-01-08T11:08:41.972Z,6.30
2019-01-08T11:11:10.503Z,6.30
2019-01-08T11:13:39.039Z,6.40
2019-01-08T11:16:07.606Z,6.50
2019-01-08T11:18:36.406Z,6.40
2019-01-08T11:21:05.034Z,6.30
2019-01-08T11:23:33.575Z,6.20
2019-01-08T11:26:02.143Z,6.10
2019-01-08T11:28:30.669Z,6.00
2019-01-08T11:30:59.155Z,6.00
2019-01-08T11:33:27.690Z,6.10
2019-01-08T11:35:56.258Z,6.10
2019-01-08T11:38:24.866Z,6.10
2019-01-08T11:40:53.430Z,6.10
2019-01-08T11:43:21.958Z,6.10
2019-01-08T11:45:50.591Z,6.10
2019-01-08T11:48:19.131Z,6.10
2019-01-08T11:50:47.687Z,6.10
2019-01-08T11:53:16.152Z,6.20
2019-01-08T11:55:44.710Z,6.20
2019-01-08T11:58:13.595Z,6.30
2019-01-08T12:00:42.149Z,6.40
2019-01-08T12:03:10.691Z,6.40
2019-01-08T12:05:39.255Z,6.40
2019-01-08T12:08:07.792Z,6.40
2019-01-08T12:10:36.358Z,6.40
2019-01-08T12:13:05.448Z,6.40
2019-01-08T12:15:34.082Z,6.50
2019-01-08T12:18:02.547Z,6.50
2019-01-08T12:20:31.086Z,6.50
2019-01-08T12:22:59.642Z,6.40
2019-01-08T12:25:29.545Z,6.40
2019-01-08T12:27:58.339Z,6.40
2019-01-08T12:30:26.866Z,6.50
2019-01-08T12:32:55.354Z,6.60
2019-01-08T12:35:23.883Z,6.60
2019-01-08T12:37:52.447Z,6.50
2019-01-08T12:40:20.986Z,6.50
2019-01-08T12:42:49.546Z,6.50
2019-01-08T12:45:18.087Z,6.60
2019-01-08T12:47:46.642Z,6.50
2019-01-08T12:50:15.171Z,6.50
2019-01-08T12:52:44.008Z,6.40
2019-01-08T12:55:13.113Z,6.40
2019-01-08T12:57:41.816Z,6.50
2019-01-08T13:00:11.758Z,6.40
2019-01-08T13:02:40.327Z,6.40
2019-01-08T13:05:08.935Z,6.40
2019-01-08T13:07:37.486Z,6.40
2019-01-08T13:10:07.785Z,6.40
2019-01-08T13:12:36.271Z,6.40
2019-01-08T13:15:05.770Z,6.30
2019-01-08T13:17:34.328Z,6.40
2019-01-08T13:20:02.869Z,6.30
2019-01-08T13:22:31.428Z,6.30
2019-01-08T13:24:59.959Z,6.40
2019-01-08T13:27:28.847Z,6.40
2019-01-08T13:29:59.001Z,6.40
2019-01-08T13:32:27.751Z,6.40
2019-01-08T13:34:56.291Z,6.60
2019-01-08T13:37:24.874Z,6.70
2019-01-08T13:39:55.327Z,6.80
2019-01-08T13:42:23.535Z,6.80
2019-01-08T13:44:52.396Z,6.80
2019-01-08T13:47:20.935Z,6.90
2019-01-08T13:49:49.499Z,6.90
2019-01-08T13:52:18.034Z,6.90
2019-01-08T13:54:46.843Z,6.80
2019-01-08T13:57:15.451Z,6.80
2019-01-08T13:59:44.015Z,6.70
2019-01-08T14:02:12.871Z,6.80
2019-01-08T14:04:41.426Z,6.80
2019-01-08T14:07:09.963Z,6.80
2019-01-08T14:09:38.517Z,6.80
2019-01-08T14:12:06.984Z,6.80
2019-01-08T14:14:35.539Z,6.80
2019-01-08T14:17:04.079Z,6.80
2019-01-08T14:19:32.635Z,6.80
2019-01-08T14:22:01.410Z,6.80
2019-01-08T14:24:29.898Z,6.80
2019-01-08T14:26:58.432Z,6.90
2019-01-08T14:29:26.923Z,6.90
2019-01-08T14:31:55.464Z,6.90
2019-01-08T14:34:24.021Z,7.00
2019-01-08T14:36:52.487Z,7.00
2019-01-08T14:39:21.051Z,7.00
2019-01-08T14:41:49.586Z,7.00
2019-01-08T14:44:18.152Z,7.00
2019-01-08T14:46:46.686Z,7.00
2019-01-08T14:49:15.251Z,6.90
2019-01-08T14:51:43.791Z,6.90
2019-01-08T14:54:12.340Z,6.90
2019-01-08T14:56:40.902Z,6.90
2019-01-08T14:59:09.433Z,6.90
2019-01-08T15:01:37.924Z,6.80
2019-01-08T15:04:06.458Z,6.80
2019-01-08T15:06:34.955Z,6.90
2019-01-08T15:09:04.431Z,6.90
2019-01-08T15:11:33.066Z,6.80
2019-01-08T15:14:01.594Z,6.90
2019-01-08T15:16:30.188Z,6.80
2019-01-08T15:18:59.075Z,6.70
2019-01-08T15:21:27.643Z,6.60
2019-01-08T15:23:56.188Z,6.50
2019-01-08T15:26:24.747Z,6.40
2019-01-08T15:28:53.282Z,6.50
2019-01-08T15:31:21.846Z,6.40
2019-01-08T15:33:50.379Z,6.40
2019-01-08T15:36:18.946Z,6.40
2019-01-08T15:38:47.479Z,6.40
2019-01-08T15:41:16.054Z,6.40
2019-01-08T15:43:44.582Z,6.30
2019-01-08T15:46:13.078Z,6.40
2019-01-08T15:48:41.611Z,6.40
2019-01-08T15:51:10.183Z,6.30
2019-01-08T15:53:39.330Z,6.40
2019-01-08T15:56:08.159Z,6.40
2019-01-08T15:58:36.768Z,6.20
2019-01-08T16:01:05.671Z,6.30
2019-01-08T16:03:34.186Z,6.20
2019-01-08T16:06:03.138Z,6.20
2019-01-08T16:08:31.671Z,6.20
2019-01-08T16:11:00.227Z,6.20
2019-01-08T16:13:28.766Z,6.20
2019-01-08T16:15:57.565Z,6.00
2019-01-08T16:18:26.094Z,6.00
2019-01-08T16:20:54.635Z,6.10
2019-01-08T16:23:23.190Z,6.10
2019-01-08T16:25:51.988Z,6.10
2019-01-08T16:28:20.545Z,6.20
2019-01-08T16:30:49.012Z,6.10
2019-01-08T16:33:17.590Z,6.10
2019-01-08T16:35:46.114Z,6.00
2019-01-08T16:38:14.602Z,6.10
2019-01-08T16:40:43.470Z,6.00
2019-01-08T16:43:12.041Z,6.00
2019-01-08T16:45:40.570Z,6.00
2019-01-08T16:48:09.133Z,6.00
2019-01-08T16:50:37.747Z,6.00
2019-01-08T16:53:06.312Z,6.00
2019-01-08T16:55:34.845Z,6.00
2019-01-08T16:58:03.644Z,6.00
2019-01-08T17:00:32.175Z,5.90
2019-01-08T17:03:00.821Z,5.70
2019-01-08T17:05:29.355Z,5.50
2019-01-08T17:07:57.921Z,5.50
2019-01-08T17:10:26.751Z,5.30
2019-01-08T17:12:55.320Z,5.30
2019-01-08T17:15:23.993Z,5.30
2019-01-08T17:17:52.559Z,5.20
2019-01-08T17:20:21.095Z,5.10
2019-01-08T17:22:49.659Z,5.00
2019-01-08T17:25:18.538Z,5.10
2019-01-08T17:27:47.099Z,5.20
2019-01-08T17:30:15.563Z,5.30
2019-01-08T17:32:44.120Z,5.40
2019-01-08T17:35:12.755Z,5.40
2019-01-08T17:37:41.290Z,5.40
2019-01-08T17:40:09.848Z,5.40
2019-01-08T17:42:38.386Z,5.30
2019-01-08T17:45:09.586Z,5.20
2019-01-08T17:47:38.110Z,5.00
2019-01-08T17:50:07.043Z,5.00
2019-01-08T17:52:35.579Z,5.00
2019-01-08T17:55:04.783Z,5.00
2019-01-08T17:57:33.339Z,5.00
2019-01-08T18:00:01.890Z,5.00
2019-01-08T18:02:30.359Z,5.10
2019-01-08T18:04:58.956Z,5.10
2019-01-08T18:07:27.478Z,5.10
2019-01-08T18:09:56.370Z,5.10
2019-01-08T18:12:24.906Z,5.10
2019-01-08T18:14:53.403Z,5.10
2019-01-08T18:17:22.007Z,5.10
2019-01-08T18:19:50.634Z,5.10
2019-01-08T18:22:19.179Z,5.10
2019-01-08T18:24:47.743Z,5.10
2019-01-08T18:27:16.307Z,5.10
2019-01-08T18:29:44.926Z,5.20
2019-01-08T18:32:13.465Z,5.10
2019-01-08T18:34:42.023Z,5.10
2019-01-08T18:37:10.560Z,5.20
2019-01-08T18:39:39.136Z,5.20
2019-01-08T18:42:07.746Z,5.20
2019-01-08T18:44:36.311Z,5.30
2019-01-08T18:47:05.186Z,5.40
2019-01-08T18:49:33.750Z,5.40
2019-01-08T18:52:02.550Z,5.40
2019-01-08T18:54:31.136Z,5.30
2019-01-08T18:56:59.674Z,5.30
2019-01-08T18:59:28.324Z,5.20
2019-01-08T19:01:56.865Z,5.20
2019-01-08T19:04:25.407Z,5.10
2019-01-08T19:06:53.979Z,4.90
2019-01-08T19:09:25.032Z,4.80
2019-01-08T19:11:54.235Z,4.70
2019-01-08T19:14:26.007Z,4.70
2019-01-08T19:16:54.575Z,4.60
2019-01-08T19:19:23.125Z,4.40
2019-01-08T19:21:51.771Z,4.40
2019-01-08T19:24:20.378Z,4.40
2019-01-08T19:26:50.251Z,4.40
2019-01-08T19:29:18.807Z,4.40
2019-01-08T19:31:47.578Z,4.50
2019-01-08T19:34:16.160Z,4.50
2019-01-08T19:36:44.793Z,4.60
2019-01-08T19:39:13.384Z,4.70
2019-01-08T19:41:41.923Z,4.80
2019-01-08T19:44:10.540Z,4.90
2019-01-08T19:46:39.129Z,4.90
2019-01-08T19:49:07.773Z,4.90
2019-01-08T19:51:36.256Z,5.00
2019-01-08T19:54:04.868Z,5.00
2019-01-08T19:56:33.458Z,5.00
2019-01-08T19:59:02.106Z,5.00
2019-01-08T20:01:30.679Z,5.00
2019-01-08T20:03:59.219Z,5.00
2019-01-08T20:06:28.067Z,5.00
2019-01-08T20:08:56.605Z,5.00
2019-01-08T20:11:25.174Z,4.90
2019-01-08T20:13:53.755Z,4.80
2019-01-08T20:16:23.167Z,4.80
2019-01-08T20:18:51.711Z,4.60
2019-01-08T20:21:20.295Z,4.60
2019-01-08T20:23:48.892Z,4.60
2019-01-08T20:26:17.839Z,4.60
2019-01-08T20:28:46.378Z,4.50
2019-01-08T20:31:14.966Z,4.60
2019-01-08T20:33:43.497Z,4.60
2019-01-08T20:36:12.074Z,4.60
2019-01-08T20:38:40.668Z,4.60
2019-01-08T20:41:09.210Z,4.60
2019-01-08T20:43:37.686Z,4.50
2019-01-08T20:46:06.269Z,4.50
2019-01-08T20:48:34.851Z,4.60
2019-01-08T20:51:03.388Z,4.60
2019-01-08T20:53:31.926Z,4.60
2019-01-08T20:56:00.523Z,4.60
2019-01-08T20:58:29.166Z,4.60
2019-01-08T21:00:57.698Z,4.60
2019-01-08T21:03:26.279Z,4.60
2019-01-08T21:05:54.819Z,4.60
2019-01-08T21:08:23.715Z,4.60
2019-01-08T21:10:52.248Z,4.60
2019-01-08T21:13:20.785Z,4.60
2019-01-08T21:15:49.691Z,4.60
2019-01-08T21:18:18.226Z,4.50
2019-01-08T21:20:47.322Z,4.60
2019-01-08T21:23:15.864Z,4.60
2019-01-08T21:25:44.458Z,4.60
2019-01-08T21:28:12.986Z,4.60
2019-01-08T21:30:41.758Z,4.50
2019-01-08T21:33:10.315Z,4.50
2019-01-08T21:35:38.895Z,4.40
2019-01-08T21:38:07.431Z,4.40
2019-01-08T21:40:36.002Z,4.50
2019-01-08T21:43:04.539Z,4.50
2019-01-08T21:45:33.131Z,4.50
2019-01-08T21:48:01.673Z,4.70
2019-01-08T21:50:30.202Z,4.70
2019-01-08T21:52:58.788Z,4.70
2019-01-08T21:55:27.319Z,4.70
2019-01-08T21:57:55.858Z,4.70
2019-01-08T22:00:24.611Z,4.70
2019-01-08T22:02:54.311Z,4.70
2019-01-08T22:05:22.966Z,4.70
2019-01-08T22:07:51.573Z,4.70
2019-01-08T22:10:20.177Z,4.70
2019-01-08T22:12:48.767Z,4.70
2019-01-08T22:15:17.368Z,4.70
2019-01-08T22:17:45.914Z,4.70
2019-01-08T22:20:14.455Z,4.60
2019-01-08T22:22:43.030Z,4.50
2019-01-08T22:25:11.567Z,4.60
2019-01-08T22:27:40.450Z,4.60
2019-01-08T22:30:09.327Z,4.60
2019-01-08T22:32:37.883Z,4.60
2019-01-08T22:35:06.537Z,4.60
2019-01-08T22:37:35.076Z,4.60
2019-01-08T22:40:03.930Z,4.70
2019-01-08T22:42:32.534Z,4.60
2019-01-08T22:45:00.990Z,4.60
2019-01-08T22:47:29.665Z,4.60
2019-01-08T22:49:58.131Z,4.60
2019-01-08T22:52:26.724Z,4.60
2019-01-08T22:54:55.637Z,4.60
2019-01-08T22:57:24.170Z,4.60
2019-01-08T22:59:52.816Z,4.70
2019-01-08T23:02:21.350Z,4.70
2019-01-08T23:04:49.958Z,4.60
2019-01-08T23:07:18.539Z,4.50
2019-01-08T23:09:47.114Z,4.50
2019-01-08T23:12:15.729Z,4.50
2019-01-08T23:14:44.298Z,4.40
2019-01-08T23:17:12.903Z,4.40
2019-01-08T23:19:41.371Z,4.40
2019-01-08T23:22:10.021Z,4.30
2019-01-08T23:24:38.591Z,4.40
2019-01-08T23:27:07.411Z,4.40
2019-01-08T23:29:36.299Z,4.40
2019-01-08T23:32:04.902Z,4.40
2019-01-08T23:34:33.435Z,4.30
2019-01-08T23:37:02.013Z,4.30
2019-01-08T23:39:30.591Z,4.30
2019-01-08T23:41:59.411Z,4.30
2019-01-08T23:44:27.991Z,4.30
2019-01-08T23:46:56.635Z,4.40
2019-01-08T23:49:25.219Z,4.40
2019-01-08T23:51:56.823Z,4.30
2019-01-08T23:54:27.756Z,4.30
2019-01-08T23:56:57.931Z,4.30
2019-01-08T23:59:26.471Z,4.30
